createdAt,value
2023-04-20T00:00:48.450Z,4.65
2023-04-20T00:03:15.309Z,4.63
2023-04-20T00:05:42.072Z,4.97
2023-04-20T00:08:08.794Z,5.25
2023-04-20T00:10:35.651Z,4.63
2023-04-20T00:13:02.292Z,4.05
2023-04-20T00:15:30.080Z,3.47
2023-04-20T00:17:57.161Z,4.22
2023-04-20T00:20:24.474Z,3.67
2023-04-20T00:22:51.264Z,3.85
2023-04-20T00:25:18.019Z,4.13
2023-04-20T00:27:44.879Z,4.50
2023-04-20T00:30:12.284Z,4.00
2023-04-20T00:32:39.052Z,4.40
2023-04-20T00:35:06.503Z,3.58
2023-04-20T00:37:33.242Z,4.30
2023-04-20T00:39:59.913Z,3.63
2023-04-20T00:42:26.691Z,4.70
2023-04-20T00:44:53.509Z,4.05
2023-04-20T00:47:20.225Z,5.03
2023-04-20T00:49:47.598Z,4.03
2023-04-20T00:52:14.355Z,4.95
2023-04-20T00:54:41.307Z,4.00
2023-04-20T00:57:08.131Z,3.90
2023-04-20T00:59:35.064Z,4.38
2023-04-20T01:02:01.809Z,4.63
2023-04-20T01:04:29.331Z,4.53
2023-04-20T01:06:56.076Z,4.15
2023-04-20T01:09:22.757Z,4.10
2023-04-20T01:11:49.575Z,4.60
2023-04-20T01:14:16.377Z,4.38
2023-04-20T01:16:44.697Z,4.35
2023-04-20T01:19:11.414Z,3.92
2023-04-20T01:21:38.214Z,5.03
2023-04-20T01:24:05.525Z,4.57
2023-04-20T01:26:32.202Z,4.55
2023-04-20T01:28:59.071Z,4.18
2023-04-20T01:31:25.821Z,4.28
2023-04-20T01:33:52.522Z,4.05
2023-04-20T01:36:19.287Z,4.00
2023-04-20T01:38:54.766Z,5.30
2023-04-20T01:41:21.746Z,4.72
2023-04-20T01:43:52.695Z,4.38
2023-04-20T01:46:19.524Z,4.78
2023-04-20T01:48:46.165Z,4.65
2023-04-20T01:51:12.896Z,4.78
2023-04-20T01:53:39.545Z,4.22
2023-04-20T01:56:06.400Z,5.03
2023-04-20T01:58:33.196Z,4.07
2023-04-20T02:01:02.654Z,4.93
2023-04-20T02:03:29.608Z,4.47
2023-04-20T02:05:56.536Z,4.40
2023-04-20T02:08:23.255Z,4.35
2023-04-20T02:10:49.978Z,5.35
2023-04-20T02:13:16.824Z,4.88
2023-04-20T02:15:43.510Z,3.83
2023-04-20T02:18:10.710Z,4.80
2023-04-20T02:20:40.092Z,5.05
2023-04-20T02:23:06.999Z,4.97
2023-04-20T02:25:33.737Z,4.70
2023-04-20T02:28:00.838Z,5.30
2023-04-20T02:30:27.555Z,4.68
2023-04-20T02:32:54.240Z,5.57
2023-04-20T02:35:21.056Z,5.45
2023-04-20T02:37:47.684Z,4.85
2023-04-20T02:40:15.107Z,5.00
2023-04-20T02:42:41.842Z,4.78
2023-04-20T02:45:09.348Z,4.63
2023-04-20T02:47:36.104Z,5.20
2023-04-20T02:50:03.077Z,5.75
2023-04-20T02:52:29.732Z,5.22
2023-04-20T02:54:56.533Z,5.00
2023-04-20T02:57:25.232Z,4.72
2023-04-20T02:59:52.003Z,5.20
2023-04-20T03:02:18.868Z,5.22
2023-04-20T03:04:45.713Z,5.07
2023-04-20T03:07:13.967Z,5.47
2023-04-20T03:09:41.995Z,5.28
2023-04-20T03:12:22.410Z,5.78
2023-04-20T03:14:49.144Z,5.50
2023-04-20T03:17:15.909Z,4.43
2023-04-20T03:19:42.543Z,5.38
2023-04-20T03:22:09.266Z,5.57
2023-04-20T03:24:36.212Z,5.55
2023-04-20T03:27:03.108Z,4.88
2023-04-20T03:29:29.899Z,7.30
2023-04-20T03:31:56.625Z,6.40
2023-04-20T03:34:23.763Z,6.35
2023-04-20T03:36:50.846Z,5.15
2023-04-20T03:39:17.711Z,6.50
2023-04-20T03:41:44.796Z,6.22
2023-04-20T03:44:12.484Z,5.40
2023-04-20T03:46:39.350Z,5.30
2023-04-20T03:49:06.948Z,5.70
2023-04-20T03:51:33.760Z,5.82
2023-04-20T03:54:00.773Z,4.85
2023-04-20T03:56:27.504Z,5.38
2023-04-20T03:58:54.179Z,5.20
2023-04-20T04:01:21.211Z,5.50
2023-04-20T04:03:48.342Z,4.90
2023-04-20T04:06:15.684Z,6.13
2023-04-20T04:08:42.441Z,6.00
2023-04-20T04:11:09.526Z,6.00
2023-04-20T04:13:36.403Z,5.50
2023-04-20T04:16:03.272Z,5.53
2023-04-20T04:18:32.734Z,5.22
2023-04-20T04:20:59.696Z,6.53
2023-04-20T04:23:26.764Z,5.70
2023-04-20T04:25:54.135Z,5.47
2023-04-20T04:28:20.952Z,6.60
2023-04-20T04:30:47.658Z,6.10
2023-04-20T04:33:14.713Z,6.43
2023-04-20T04:35:41.834Z,6.43
2023-04-20T04:38:08.626Z,6.93
2023-04-20T04:40:35.892Z,6.00
2023-04-20T04:43:02.736Z,7.10
2023-04-20T04:45:29.440Z,7.13
2023-04-20T04:47:57.206Z,7.38
2023-04-20T04:50:24.296Z,6.72
2023-04-20T04:52:50.967Z,5.85
2023-04-20T04:55:17.852Z,7.43
2023-04-20T04:57:44.651Z,6.32
2023-04-20T05:00:12.731Z,6.63
2023-04-20T05:02:40.466Z,6.00
2023-04-20T05:05:10.946Z,7.00
2023-04-20T05:07:38.495Z,6.53
2023-04-20T05:10:06.644Z,6.10
2023-04-20T05:12:33.473Z,6.70
2023-04-20T05:15:00.384Z,6.03
2023-04-20T05:17:27.207Z,6.38
2023-04-20T05:19:54.179Z,5.45
2023-04-20T05:22:21.009Z,5.20
2023-04-20T05:24:47.780Z,6.53
2023-04-20T05:27:14.415Z,6.68
2023-04-20T05:29:41.238Z,5.63
2023-04-20T05:32:08.282Z,6.35
2023-04-20T05:34:35.301Z,5.82
2023-04-20T05:37:04.348Z,5.90
2023-04-20T05:39:31.041Z,6.38
2023-04-20T05:41:58.002Z,5.40
2023-04-20T05:44:24.786Z,6.40
2023-04-20T05:46:51.445Z,5.82
2023-04-20T05:49:18.328Z,6.18
2023-04-20T05:51:45.280Z,6.47
2023-04-20T05:54:12.097Z,6.07
2023-04-20T05:56:38.846Z,5.95
2023-04-20T05:59:05.782Z,5.72
2023-04-20T06:01:32.480Z,6.03
2023-04-20T06:03:59.386Z,6.13
2023-04-20T06:06:26.562Z,5.05
2023-04-20T06:08:53.297Z,6.68
2023-04-20T06:11:20.097Z,6.07
2023-04-20T06:13:46.711Z,5.57
2023-04-20T06:16:13.473Z,5.25
2023-04-20T06:18:40.137Z,5.95
2023-04-20T06:21:10.391Z,5.97
2023-04-20T06:23:37.661Z,6.78
2023-04-20T06:26:08.375Z,5.68
2023-04-20T06:28:36.119Z,5.53
2023-04-20T06:31:06.650Z,6.50
2023-04-20T06:33:33.465Z,6.32
2023-04-20T06:36:00.194Z,6.43
2023-04-20T06:38:27.036Z,6.70
2023-04-20T06:40:53.808Z,6.25
2023-04-20T06:43:20.470Z,5.47
2023-04-20T06:45:47.244Z,6.70
2023-04-20T06:48:28.038Z,5.80
2023-04-20T06:50:58.407Z,6.20
2023-04-20T06:53:25.266Z,6.07
2023-04-20T06:55:54.947Z,6.75
2023-04-20T06:58:21.693Z,6.60
2023-04-20T07:00:48.431Z,6.38
2023-04-20T07:03:15.458Z,6.60
2023-04-20T07:05:42.436Z,6.13
2023-04-20T07:08:09.464Z,6.53
2023-04-20T07:10:36.170Z,5.82
2023-04-20T07:13:02.928Z,6.35
2023-04-20T07:15:29.654Z,6.45
2023-04-20T07:17:56.340Z,6.65
2023-04-20T07:20:23.244Z,6.80
2023-04-20T07:22:49.879Z,7.30
2023-04-20T07:25:17.685Z,6.57
2023-04-20T07:27:44.383Z,7.75
2023-04-20T07:30:12.045Z,6.95
2023-04-20T07:32:40.075Z,6.38
2023-04-20T07:35:07.888Z,6.72
2023-04-20T07:37:34.711Z,6.78
2023-04-20T07:40:01.653Z,6.75
2023-04-20T07:42:29.227Z,6.22
2023-04-20T07:44:56.418Z,6.70
2023-04-20T07:47:23.222Z,7.13
2023-04-20T07:49:50.333Z,6.53
2023-04-20T07:52:18.351Z,6.28
2023-04-20T07:54:48.537Z,6.88
2023-04-20T07:57:15.444Z,6.40
2023-04-20T07:59:42.295Z,7.05
2023-04-20T08:02:09.294Z,6.60
2023-04-20T08:04:38.250Z,6.22
2023-04-20T08:07:05.180Z,6.75
2023-04-20T08:09:31.897Z,6.70
2023-04-20T08:11:58.676Z,6.72
2023-04-20T08:14:25.338Z,6.03
2023-04-20T08:16:52.077Z,5.95
2023-04-20T08:19:18.845Z,7.07
2023-04-20T08:21:45.702Z,6.30
2023-04-20T08:24:13.431Z,6.40
2023-04-20T08:26:40.684Z,7.43
2023-04-20T08:29:07.443Z,6.28
2023-04-20T08:31:34.222Z,5.65
2023-04-20T08:34:01.146Z,5.55
2023-04-20T08:36:28.066Z,6.50
2023-04-20T08:39:14.953Z,6.57
2023-04-20T08:41:41.786Z,5.90
2023-04-20T08:44:08.775Z,6.85
2023-04-20T08:46:36.173Z,6.35
2023-04-20T08:49:04.222Z,5.93
2023-04-20T08:51:32.843Z,6.28
2023-04-20T08:54:10.267Z,8.82
2023-04-20T08:56:42.635Z,6.38
2023-04-20T08:59:10.419Z,5.43
2023-04-20T09:01:39.430Z,6.63
2023-04-20T09:04:20.121Z,6.35
2023-04-20T09:06:50.093Z,6.20
2023-04-20T09:09:18.371Z,6.13
2023-04-20T09:11:46.023Z,6.53
2023-04-20T09:14:16.577Z,6.85
2023-04-20T09:16:51.374Z,6.65
2023-04-20T09:19:31.336Z,6.63
2023-04-20T09:21:59.786Z,6.38
2023-04-20T09:24:37.744Z,6.93
2023-04-20T09:27:18.821Z,6.60
2023-04-20T09:30:01.072Z,8.15
2023-04-20T09:32:29.079Z,6.30
2023-04-20T09:34:56.597Z,7.22
2023-04-20T09:37:23.446Z,7.53
2023-04-20T09:39:50.661Z,7.93
2023-04-20T09:42:18.201Z,7.07
2023-04-20T09:44:45.099Z,6.97
2023-04-20T09:47:21.374Z,7.13
2023-04-20T09:49:48.413Z,7.53
2023-04-20T09:52:19.046Z,7.07
2023-04-20T09:54:46.442Z,7.20
2023-04-20T09:57:14.034Z,9.38
2023-04-20T09:59:46.611Z,7.00
2023-04-20T10:02:14.326Z,8.85
2023-04-20T10:04:56.954Z,8.02
2023-04-20T10:10:08.728Z,6.95
2023-04-20T10:12:54.241Z,6.40
2023-04-20T10:15:24.939Z,20.25
2023-04-20T10:17:51.746Z,9.20
2023-04-20T10:20:24.573Z,9.85
2023-04-20T10:22:52.563Z,20.42
2023-04-20T10:25:22.575Z,37.60
2023-04-20T10:28:10.831Z,33.97
2023-04-20T10:30:49.505Z,12.15
2023-04-20T10:33:17.332Z,7.78
2023-04-20T10:35:51.183Z,24.52
2023-04-20T10:38:33.872Z,7.38
2023-04-20T10:41:13.447Z,26.98
2023-04-20T10:43:43.229Z,8.98
2023-04-20T10:46:21.857Z,8.80
2023-04-20T10:48:59.157Z,10.68
2023-04-20T10:51:26.105Z,7.97
2023-04-20T10:54:07.466Z,8.65
2023-04-20T10:56:42.200Z,7.88
2023-04-20T10:59:11.290Z,12.23
2023-04-20T11:01:38.575Z,7.85
2023-04-20T11:04:05.653Z,8.00
2023-04-20T11:06:32.581Z,7.47
2023-04-20T11:08:59.261Z,8.02
2023-04-20T11:11:27.808Z,8.40
2023-04-20T11:14:08.329Z,14.73
2023-04-20T11:16:47.862Z,10.40
2023-04-20T11:19:32.326Z,9.18
2023-04-20T11:21:59.822Z,10.18
2023-04-20T11:24:29.243Z,7.70
2023-04-20T11:26:56.802Z,8.43
2023-04-20T11:29:59.634Z,9.32
2023-04-20T11:35:06.467Z,7.32
2023-04-20T11:37:45.808Z,7.95
2023-04-20T11:40:13.259Z,8.23
2023-04-20T11:42:39.977Z,7.90
2023-04-20T11:45:07.278Z,9.90
2023-04-20T11:47:36.786Z,7.50
2023-04-20T11:50:03.864Z,7.82
2023-04-20T11:52:30.501Z,7.55
2023-04-20T11:54:57.172Z,8.60
2023-04-20T11:57:25.601Z,7.40
2023-04-20T11:59:52.568Z,9.27
2023-04-20T12:02:19.385Z,8.30
2023-04-20T12:04:46.627Z,7.97
2023-04-20T12:07:13.687Z,8.15
2023-04-20T12:09:41.177Z,8.25
2023-04-20T12:12:11.252Z,7.85
2023-04-20T12:14:38.013Z,9.02
2023-04-20T12:17:05.476Z,8.40
2023-04-20T12:19:32.742Z,8.10
2023-04-20T12:21:59.572Z,8.43
2023-04-20T12:24:26.284Z,8.20
2023-04-20T12:26:52.923Z,7.93
2023-04-20T12:29:20.039Z,8.48
2023-04-20T12:31:47.025Z,8.23
2023-04-20T12:34:13.820Z,7.10
2023-04-20T12:36:40.846Z,7.78
2023-04-20T12:39:07.654Z,7.47
2023-04-20T12:41:34.492Z,7.38
2023-04-20T12:44:03.409Z,6.80
2023-04-20T12:46:32.157Z,6.28
2023-04-20T12:48:58.902Z,5.85
2023-04-20T12:51:25.594Z,6.13
2023-04-20T12:53:52.271Z,6.55
2023-04-20T12:56:18.953Z,7.32
2023-04-20T12:58:46.278Z,6.07
2023-04-20T13:01:13.030Z,6.45
2023-04-20T13:03:40.361Z,6.57
2023-04-20T13:06:07.489Z,7.25
2023-04-20T13:08:34.336Z,7.30
2023-04-20T13:11:01.085Z,6.97
2023-04-20T13:13:27.784Z,7.82
2023-04-20T13:15:54.819Z,8.63
2023-04-20T13:18:23.834Z,12.60
2023-04-20T13:20:50.656Z,8.23
2023-04-20T13:23:18.057Z,8.68
2023-04-20T13:25:44.902Z,7.45
2023-04-20T13:28:14.513Z,7.90
2023-04-20T13:30:41.645Z,8.77
2023-04-20T13:33:08.372Z,8.02
2023-04-20T13:35:36.086Z,9.55
2023-04-20T13:38:04.066Z,11.23
2023-04-20T13:40:30.746Z,11.05
2023-04-20T13:42:57.523Z,8.07
2023-04-20T13:45:25.006Z,8.07
2023-04-20T13:47:51.979Z,9.88
2023-04-20T13:50:18.757Z,13.77
2023-04-20T13:52:45.463Z,10.63
2023-04-20T13:55:12.191Z,7.60
2023-04-20T13:57:38.889Z,8.07
2023-04-20T14:00:07.172Z,9.02
2023-04-20T14:02:34.067Z,7.63
2023-04-20T14:05:00.910Z,8.30
2023-04-20T14:07:27.512Z,10.52
2023-04-20T14:09:56.627Z,9.27
2023-04-20T14:12:23.517Z,8.50
2023-04-20T14:14:50.283Z,8.30
2023-04-20T14:17:17.161Z,7.78
2023-04-20T14:19:43.846Z,8.15
2023-04-20T14:22:10.626Z,8.40
2023-04-20T14:24:37.378Z,8.10
2023-04-20T14:27:04.099Z,8.85
2023-04-20T14:29:30.902Z,8.18
2023-04-20T14:31:58.756Z,11.98
2023-04-20T14:34:25.754Z,8.57
2023-04-20T14:36:52.401Z,8.80
2023-04-20T14:39:20.932Z,8.10
2023-04-20T14:41:47.882Z,9.15
2023-04-20T14:44:14.963Z,9.00
2023-04-20T14:46:42.695Z,10.23
2023-04-20T14:49:10.503Z,9.90
2023-04-20T14:51:37.316Z,17.58
2023-04-20T14:54:04.261Z,9.57
2023-04-20T14:56:31.063Z,12.25
2023-04-20T14:58:59.785Z,12.57
2023-04-20T15:01:28.243Z,12.07
2023-04-20T15:03:55.436Z,10.13
2023-04-20T15:06:22.451Z,9.65
2023-04-20T15:08:49.398Z,10.32
2023-04-20T15:11:16.287Z,10.40
2023-04-20T15:13:43.790Z,9.90
2023-04-20T15:16:10.795Z,9.60
2023-04-20T15:18:37.582Z,10.93
2023-04-20T15:21:04.850Z,11.13
2023-04-20T15:23:31.655Z,9.68
2023-04-20T15:25:58.827Z,10.10
2023-04-20T15:28:25.904Z,10.10
2023-04-20T15:30:52.702Z,10.07
2023-04-20T15:33:19.628Z,9.45
2023-04-20T15:35:46.476Z,9.20
2023-04-20T15:38:13.270Z,9.77
2023-04-20T15:40:40.098Z,10.40
2023-04-20T15:43:07.049Z,10.15
2023-04-20T15:45:33.911Z,11.07
2023-04-20T15:48:01.152Z,10.48
2023-04-20T15:50:28.084Z,9.75
2023-04-20T15:52:54.998Z,9.90
2023-04-20T15:55:22.291Z,10.13
2023-04-20T15:57:49.083Z,9.30
2023-04-20T16:00:16.322Z,9.52
2023-04-20T16:02:43.289Z,9.43
2023-04-20T16:05:10.176Z,10.13
2023-04-20T16:07:37.163Z,10.70
2023-04-20T16:10:06.536Z,10.43
2023-04-20T16:12:33.250Z,10.27
2023-04-20T16:15:01.934Z,10.68
2023-04-20T16:17:28.823Z,9.57
2023-04-20T16:19:58.721Z,10.60
2023-04-20T16:22:25.941Z,10.70
2023-04-20T16:24:52.734Z,11.05
2023-04-20T16:27:19.478Z,12.43
2023-04-20T16:29:46.202Z,15.02
2023-04-20T16:32:13.011Z,12.77
2023-04-20T16:34:39.746Z,13.52
2023-04-20T16:37:06.480Z,17.95
2023-04-20T16:39:33.283Z,12.45
2023-04-20T16:41:59.961Z,12.15
2023-04-20T16:44:26.616Z,11.45
2023-04-20T16:46:53.384Z,11.65
2023-04-20T16:49:20.336Z,11.65
2023-04-20T16:51:47.960Z,12.50
2023-04-20T16:54:14.682Z,11.80
2023-04-20T16:56:41.762Z,11.00
2023-04-20T16:59:08.500Z,11.95
2023-04-20T17:01:35.424Z,12.82
2023-04-20T17:04:02.649Z,12.60
2023-04-20T17:06:29.709Z,12.95
2023-04-20T17:09:01.418Z,12.00
2023-04-20T17:11:28.124Z,11.70
2023-04-20T17:13:54.868Z,12.05
2023-04-20T17:16:21.655Z,11.57
2023-04-20T17:18:48.401Z,11.93
2023-04-20T17:21:15.279Z,11.00
2023-04-20T17:23:42.025Z,13.15
2023-04-20T17:26:09.159Z,11.98
2023-04-20T17:28:36.033Z,11.38
2023-04-20T17:31:02.903Z,11.63
2023-04-20T17:33:29.676Z,12.02
2023-04-20T17:35:57.042Z,11.80
2023-04-20T17:38:24.436Z,12.18
2023-04-20T17:40:51.321Z,12.63
2023-04-20T17:43:18.038Z,13.13
2023-04-20T17:45:44.910Z,11.88
2023-04-20T17:48:11.637Z,12.57
2023-04-20T17:50:38.473Z,12.30
2023-04-20T17:53:06.905Z,12.35
2023-04-20T17:55:34.466Z,13.18
2023-04-20T17:58:01.509Z,13.07
2023-04-20T18:00:28.218Z,13.07
2023-04-20T18:02:55.015Z,14.15
2023-04-20T18:05:21.853Z,13.20
2023-04-20T18:07:48.634Z,13.20
2023-04-20T18:10:15.720Z,14.43
2023-04-20T18:12:42.953Z,14.20
2023-04-20T18:15:10.063Z,13.50
2023-04-20T18:17:36.864Z,14.98
2023-04-20T18:20:05.822Z,14.43
2023-04-20T18:22:33.076Z,14.55
2023-04-20T18:24:59.791Z,13.93
2023-04-20T18:27:26.540Z,14.13
2023-04-20T18:29:53.648Z,15.02
2023-04-20T18:32:23.279Z,15.50
2023-04-20T18:34:50.048Z,14.82
2023-04-20T18:37:16.755Z,14.13
2023-04-20T18:39:43.532Z,16.60
2023-04-20T18:42:10.428Z,15.73
2023-04-20T18:44:37.281Z,13.85
2023-04-20T18:47:04.313Z,14.65
2023-04-20T18:49:36.674Z,18.08
2023-04-20T18:54:30.148Z,18.50
2023-04-20T18:56:56.968Z,16.30
2023-04-20T18:59:24.773Z,16.60
2023-04-20T19:01:52.487Z,16.30
2023-04-20T19:04:19.966Z,17.60
2023-04-20T19:06:46.906Z,16.73
2023-04-20T19:09:13.832Z,17.20
2023-04-20T19:11:40.780Z,17.50
2023-04-20T19:14:07.508Z,16.98
2023-04-20T19:16:34.667Z,18.65
2023-04-20T19:19:01.783Z,18.30
2023-04-20T19:21:28.455Z,17.85
2023-04-20T19:23:55.954Z,17.90
2023-04-20T19:26:23.455Z,17.05
2023-04-20T19:28:50.365Z,18.23
2023-04-20T19:31:17.194Z,19.10
2023-04-20T19:33:44.181Z,17.90
2023-04-20T19:36:10.995Z,17.48
2023-04-20T19:38:38.724Z,18.27
2023-04-20T19:41:06.435Z,18.25
2023-04-20T19:43:33.173Z,17.83
2023-04-20T19:45:59.974Z,16.83
2023-04-20T19:48:26.864Z,17.60
2023-04-20T19:50:56.590Z,18.17
2023-04-20T19:53:25.157Z,18.50
2023-04-20T19:55:51.898Z,17.83
2023-04-20T19:58:19.072Z,19.40
2023-04-20T20:00:46.084Z,18.35
2023-04-20T20:03:14.927Z,20.45
2023-04-20T20:05:44.850Z,21.33
2023-04-20T20:08:11.775Z,20.85
2023-04-20T20:10:38.496Z,21.60
2023-04-20T20:13:05.745Z,22.10
2023-04-20T20:15:32.533Z,22.77
2023-04-20T20:17:59.588Z,22.15
2023-04-20T20:20:33.036Z,21.08
2023-04-20T20:23:00.093Z,21.42
2023-04-20T20:25:26.935Z,23.02
2023-04-20T20:27:53.793Z,23.25
2023-04-20T20:30:20.671Z,23.88
2023-04-20T20:32:47.506Z,25.48
2023-04-20T20:35:14.326Z,25.27
2023-04-20T20:37:41.642Z,25.00
2023-04-20T20:40:14.472Z,23.67
2023-04-20T20:42:47.921Z,24.98
2023-04-20T20:45:15.365Z,24.30
2023-04-20T20:47:44.439Z,24.23
2023-04-20T20:50:12.783Z,24.98
2023-04-20T20:52:39.896Z,25.25
2023-04-20T20:55:08.077Z,23.65
2023-04-20T20:57:35.522Z,24.40
2023-04-20T21:00:02.875Z,22.98
2023-04-20T21:02:29.888Z,24.42
2023-04-20T21:04:56.710Z,26.48
2023-04-20T21:07:23.464Z,24.45
2023-04-20T21:09:50.998Z,24.38
2023-04-20T21:12:17.833Z,25.27
2023-04-20T21:14:44.648Z,24.45
2023-04-20T21:17:11.398Z,25.88
2023-04-20T21:19:38.228Z,23.92
2023-04-20T21:22:05.012Z,23.75
2023-04-20T21:24:31.633Z,23.55
2023-04-20T21:26:58.273Z,23.20
2023-04-20T21:29:25.240Z,23.40
2023-04-20T21:31:52.079Z,25.52
2023-04-20T21:34:19.144Z,24.35
2023-04-20T21:36:45.843Z,22.55
2023-04-20T21:39:12.540Z,24.35
2023-04-20T21:41:39.289Z,23.33
2023-04-20T21:44:05.961Z,24.95
2023-04-20T21:46:33.109Z,22.92
2023-04-20T21:48:59.922Z,23.65
2023-04-20T21:51:27.650Z,23.88
2023-04-20T21:53:54.332Z,22.27
2023-04-20T21:56:21.175Z,23.00
2023-04-20T21:58:47.855Z,23.20
2023-04-20T22:01:14.546Z,23.75
2023-04-20T22:03:41.444Z,21.02
2023-04-20T22:06:08.604Z,21.42
2023-04-20T22:08:39.511Z,22.33
2023-04-20T22:11:07.278Z,20.45
2023-04-20T22:13:34.705Z,19.60
2023-04-20T22:16:01.425Z,20.20
2023-04-20T22:18:28.224Z,21.25
2023-04-20T22:20:54.937Z,21.42
2023-04-20T22:23:21.648Z,22.33
2023-04-20T22:25:48.406Z,21.67
2023-04-20T22:28:15.208Z,20.33
2023-04-20T22:30:42.792Z,19.83
2023-04-20T22:33:09.689Z,20.25
2023-04-20T22:35:36.556Z,24.52
2023-04-20T22:38:03.406Z,24.75
2023-04-20T22:40:30.430Z,27.17
2023-04-20T22:42:57.068Z,28.60
2023-04-20T22:45:24.060Z,29.42
2023-04-20T22:47:50.880Z,28.90
2023-04-20T22:50:17.924Z,26.27
2023-04-20T22:52:45.845Z,26.35
2023-04-20T22:55:12.684Z,27.85
2023-04-20T22:57:39.472Z,26.35
2023-04-20T23:00:10.190Z,29.90
2023-04-20T23:02:37.520Z,27.30
2023-04-20T23:05:05.738Z,27.85
2023-04-20T23:07:33.161Z,25.98
2023-04-20T23:10:00.449Z,27.10
2023-04-20T23:12:29.610Z,27.23
2023-04-20T23:15:00.576Z,28.17
2023-04-20T23:17:28.523Z,27.50
2023-04-20T23:19:56.512Z,26.95
2023-04-20T23:22:23.467Z,27.88
2023-04-20T23:24:50.624Z,28.23
2023-04-20T23:27:17.463Z,29.98
2023-04-20T23:29:44.965Z,28.88
2023-04-20T23:32:11.750Z,27.73
2023-04-20T23:34:38.601Z,29.60
2023-04-20T23:37:05.420Z,28.45
2023-04-20T23:39:36.965Z,28.80
2023-04-20T23:42:04.870Z,30.90
2023-04-20T23:44:31.685Z,31.73
2023-04-20T23:46:58.533Z,30.92
2023-04-20T23:49:25.332Z,28.90
2023-04-20T23:51:52.012Z,33.17
2023-04-20T23:54:18.772Z,32.80
2023-04-20T23:56:45.452Z,34.65
2023-04-20T23:59:12.200Z,32.72
